createdAt,value
2022-10-07T00:00:34.071Z,10.40
2022-10-07T00:10:43.277Z,10.40
2022-10-07T00:20:45.080Z,10.40
2022-10-07T00:30:46.874Z,10.40
2022-10-07T00:40:48.578Z,10.30
2022-10-07T00:50:52.198Z,10.30
2022-10-07T01:00:54.175Z,10.00
2022-10-07T01:11:13.747Z,10.00
2022-10-07T01:21:37.022Z,10.00
2022-10-07T01:31:45.924Z,9.90
2022-10-07T01:41:48.369Z,9.80
2022-10-07T01:52:10.961Z,9.80
2022-10-07T02:02:43.083Z,9.80
2022-10-07T02:13:13.742Z,9.80
2022-10-07T02:23:18.980Z,9.80
2022-10-07T02:33:25.711Z,9.60
2022-10-07T02:43:37.039Z,9.60
2022-10-07T02:53:40.073Z,9.60
2022-10-07T03:03:42.320Z,9.60
2022-10-07T03:13:45.375Z,9.60
2022-10-07T03:23:52.357Z,9.70
2022-10-07T03:33:56.334Z,9.80
2022-10-07T03:43:59.196Z,9.70
2022-10-07T03:54:01.060Z,9.70
2022-10-07T04:04:02.699Z,9.60
2022-10-07T04:14:04.297Z,9.60
2022-10-07T04:24:06.056Z,9.60
2022-10-07T04:34:08.516Z,9.60
2022-10-07T04:44:10.175Z,9.90
2022-10-07T04:54:11.819Z,10.00
2022-10-07T05:04:14.544Z,9.80
2022-10-07T05:14:20.027Z,9.90
2022-10-07T05:24:21.649Z,9.90
2022-10-07T05:34:23.306Z,9.50
2022-10-07T05:44:25.123Z,9.00
2022-10-07T05:54:26.779Z,8.80
2022-10-07T06:04:28.496Z,8.80
2022-10-07T06:14:30.376Z,8.70
2022-10-07T06:24:33.798Z,8.40
2022-10-07T06:34:35.423Z,8.40
2022-10-07T06:44:37.222Z,8.70
2022-10-07T06:54:38.983Z,8.80
2022-10-07T07:04:40.817Z,9.00
2022-10-07T07:14:44.891Z,9.10
2022-10-07T07:24:46.745Z,9.10
2022-10-07T07:34:48.395Z,9.20
2022-10-07T07:44:50.114Z,9.20
2022-10-07T07:54:52.473Z,9.40
2022-10-07T08:04:54.096Z,9.60
2022-10-07T08:14:55.699Z,9.80
2022-10-07T08:24:59.914Z,10.50
2022-10-07T08:35:01.564Z,10.50
2022-10-07T08:45:05.071Z,11.00
2022-10-07T08:55:28.096Z,11.00
2022-10-07T09:05:40.399Z,11.20
2022-10-07T09:15:49.329Z,11.80
2022-10-07T09:25:52.127Z,12.40
2022-10-07T09:35:57.737Z,12.40
2022-10-07T09:46:01.279Z,12.70
2022-10-07T09:56:02.989Z,12.90
2022-10-07T10:06:08.885Z,13.30
2022-10-07T10:16:25.953Z,13.90
2022-10-07T10:26:41.766Z,14.00
2022-10-07T10:36:46.727Z,14.30
2022-10-07T10:47:15.701Z,14.60
2022-10-07T10:57:40.594Z,14.80
2022-10-07T11:07:47.375Z,15.10
2022-10-07T11:17:52.814Z,15.60
2022-10-07T11:28:12.201Z,15.80
2022-10-07T11:38:18.492Z,16.00
2022-10-07T11:48:28.541Z,16.20
2022-10-07T11:58:34.472Z,16.50
2022-10-07T12:08:42.828Z,16.70
2022-10-07T12:19:07.282Z,17.00
2022-10-07T12:29:28.681Z,17.30
2022-10-07T12:39:37.180Z,17.40
2022-10-07T12:49:47.751Z,17.50
2022-10-07T12:59:58.409Z,17.50
2022-10-07T13:10:32.483Z,17.60
2022-10-07T13:20:36.619Z,17.80
2022-10-07T13:30:41.198Z,17.90
2022-10-07T13:40:42.820Z,17.90
2022-10-07T13:50:45.344Z,18.00
2022-10-07T14:00:48.197Z,18.10
2022-10-07T14:11:05.650Z,18.10
2022-10-07T14:21:10.510Z,18.40
2022-10-07T14:31:38.066Z,18.40
2022-10-07T14:41:39.731Z,18.30
2022-10-07T14:51:43.337Z,18.40
2022-10-07T15:01:44.999Z,18.80
2022-10-07T15:11:46.620Z,19.80
2022-10-07T15:21:48.240Z,19.60
2022-10-07T15:31:52.306Z,19.00
2022-10-07T15:41:54.328Z,18.30
2022-10-07T15:51:56.139Z,18.30
2022-10-07T16:01:57.937Z,18.10
2022-10-07T16:11:59.912Z,17.90
2022-10-07T16:22:01.686Z,17.80
2022-10-07T16:32:03.723Z,17.60
2022-10-07T16:42:05.405Z,17.50
2022-10-07T16:52:10.765Z,17.40
2022-10-07T17:02:12.504Z,17.30
2022-10-07T17:12:14.246Z,17.20
2022-10-07T17:22:15.907Z,17.00
2022-10-07T17:32:17.525Z,16.90
2022-10-07T17:42:19.153Z,16.70
2022-10-07T17:52:25.208Z,16.60
2022-10-07T18:02:28.921Z,16.40
2022-10-07T18:12:49.376Z,16.30
2022-10-07T18:22:58.577Z,16.20
2022-10-07T18:33:00.210Z,16.10
2022-10-07T18:43:01.860Z,16.00
2022-10-07T18:53:03.471Z,15.90
2022-10-07T19:03:05.076Z,15.80
2022-10-07T19:13:25.193Z,15.70
2022-10-07T19:23:28.222Z,15.60
2022-10-07T19:33:29.811Z,15.50
2022-10-07T19:43:34.992Z,15.50
2022-10-07T19:53:36.648Z,15.40
2022-10-07T20:03:38.416Z,15.30
2022-10-07T20:13:40.918Z,15.20
2022-10-07T20:23:45.127Z,15.10
2022-10-07T20:33:51.729Z,15.10
2022-10-07T20:43:53.332Z,15.10
2022-10-07T20:53:54.955Z,15.00
2022-10-07T21:03:56.581Z,14.90
2022-10-07T21:13:58.945Z,14.90
2022-10-07T21:24:00.712Z,14.90
2022-10-07T21:34:07.855Z,14.80
2022-10-07T21:44:12.316Z,14.80
2022-10-07T21:54:14.333Z,14.70
2022-10-07T22:08:56.150Z,14.50
2022-10-07T22:18:58.113Z,14.40
2022-10-07T22:29:00.029Z,14.30
2022-10-07T22:39:01.713Z,14.30
2022-10-07T22:49:03.337Z,14.30
2022-10-07T22:59:06.478Z,14.30
2022-10-07T23:09:08.190Z,14.30
2022-10-07T23:19:09.839Z,14.20
2022-10-07T23:29:12.334Z,14.10
2022-10-07T23:39:13.986Z,14.10
2022-10-07T23:49:16.571Z,14.00
2022-10-07T23:59:18.222Z,13.90
